Time;durP1;ratioP1;P1;durP2;ratioP2;P2;SDS_P1;SDS_P2;PMS_P1;PMS_P2;Temp;Humidity;BMP_temperature;BMP_pressure;BME280_temperature;BME280_humidity;BME280_pressure;Samples;Min_cycle;Max_cycle;Signal;HPM_P1;HPM_P2
2021/06/02 00:01:56;;;;;;;6.38;5.78;;;;;;;19.35;51.77;100538.22;5044432;28;20084;-71
2021/06/02 00:04:29;;;;;;;10.82;6.90;;;;;;;19.36;51.64;100533.75;5045370;28;20040;-70
2021/06/02 00:07:02;;;;;;;8.15;5.82;;;;;;;19.29;51.73;100538.72;5028503;28;20098;-70
2021/06/02 00:09:30;;;;;;;7.10;5.57;;;;;;;19.24;51.96;100532.97;5045504;28;20041;-70
2021/06/02 00:12:02;;;;;;;8.45;5.40;;;;;;;19.19;52.44;100543.06;5045822;28;20041;-70
2021/06/02 00:14:29;;;;;;;12.50;6.05;;;;;;;19.20;52.02;100544.75;5045437;28;20037;-69
2021/06/02 00:16:58;;;;;;;8.20;6.07;;;;;;;19.21;52.05;100543.78;5045635;28;20041;-70
2021/06/02 00:19:25;;;;;;;10.13;6.30;;;;;;;19.16;52.48;100547.75;5045799;28;20041;-68
2021/06/02 00:21:54;;;;;;;7.03;6.28;;;;;;;19.03;52.80;100548.75;5044909;28;20381;-69
2021/06/02 00:24:21;;;;;;;8.93;6.30;;;;;;;19.08;52.83;100548.41;5046089;28;20095;-68
2021/06/02 00:26:51;;;;;;;9.05;5.82;;;;;;;18.96;53.19;100550.22;5027450;28;20071;-70
2021/06/02 00:29:18;;;;;;;7.82;5.43;;;;;;;18.96;53.16;100549.38;5045951;28;20534;-70
2021/06/02 00:31:46;;;;;;;15.43;6.25;;;;;;;18.99;52.61;100546.50;5047612;28;20139;-70
2021/06/02 00:34:14;;;;;;;6.15;5.60;;;;;;;18.97;52.75;100545.78;5049746;28;20543;-70
2021/06/02 00:36:43;;;;;;;7.57;6.22;;;;;;;18.93;52.99;100550.47;5031542;28;20065;-70
2021/06/02 00:39:12;;;;;;;8.85;6.18;;;;;;;18.91;52.98;100557.69;5051127;28;20069;-70
2021/06/02 00:41:43;;;;;;;8.23;6.10;;;;;;;18.89;52.88;100545.53;5052651;28;20076;-68
2021/06/02 00:44:17;;;;;;;6.95;6.25;;;;;;;18.94;52.58;100546.00;5055662;28;20098;-68
2021/06/02 00:46:46;;;;;;;10.85;6.05;;;;;;;18.87;53.00;100547.47;5053050;28;20045;-68
2021/06/02 00:49:23;;;;;;;8.40;6.00;;;;;;;18.80;53.14;100553.25;5055839;28;20045;-69
2021/06/02 00:52:05;;;;;;;11.48;7.93;;;;;;;18.77;53.48;100547.38;5055728;28;20079;-68
2021/06/02 00:54:36;;;;;;;11.88;8.32;;;;;;;18.82;53.24;100548.69;5053071;28;20124;-68
2021/06/02 00:57:10;;;;;;;17.17;9.82;;;;;;;18.83;52.94;100547.72;5055682;28;20103;-70
2021/06/02 00:59:41;;;;;;;8.23;7.38;;;;;;;18.76;53.46;100550.97;5055146;28;20040;-69
2021/06/02 01:02:17;;;;;;;8.85;5.88;;;;;;;18.70;53.89;100549.66;5056060;28;20061;-69
2021/06/02 01:04:44;;;;;;;6.50;5.70;;;;;;;18.67;53.95;100544.56;5055391;28;20052;-69
2021/06/02 01:07:12;;;;;;;6.72;5.15;;;;;;;18.59;54.01;100552.28;5055819;28;20043;-69
2021/06/02 01:09:49;;;;;;;5.55;4.75;;;;;;;18.65;53.84;100554.44;5054897;28;20048;-70
2021/06/02 01:12:21;;;;;;;7.35;5.00;;;;;;;18.67;53.52;100563.06;5043421;28;20469;-70
2021/06/02 01:14:50;;;;;;;8.05;5.22;;;;;;;18.59;53.80;100554.91;5055329;28;20071;-68
2021/06/02 01:17:21;;;;;;;6.65;4.88;;;;;;;18.56;53.92;100548.06;5055905;28;20043;-70
2021/06/02 01:19:49;;;;;;;8.75;4.95;;;;;;;18.39;54.47;100548.53;5049753;28;20080;-68
2021/06/02 01:22:16;;;;;;;6.57;5.40;;;;;;;18.48;54.21;100546.97;5049068;28;20041;-68
2021/06/02 01:24:44;;;;;;;11.57;5.63;;;;;;;18.48;54.19;100553.13;5029565;28;20120;-68
2021/06/02 01:27:12;;;;;;;7.45;5.03;;;;;;;18.47;54.27;100553.22;5047141;28;20040;-68
2021/06/02 01:29:48;;;;;;;6.20;5.60;;;;;;;18.49;54.03;100553.97;5048702;28;20060;-68
2021/06/02 01:32:27;;;;;;;7.97;5.85;;;;;;;18.51;54.03;100552.03;5048844;28;20094;-68
2021/06/02 01:35:24;;;;;;;7.97;6.18;;;;;;;18.53;53.87;100556.22;5048374;28;20446;-66
2021/06/02 01:38:16;;;;;;;6.53;5.15;;;;;;;18.50;53.96;100551.19;5049527;28;20495;-68
2021/06/02 01:41:01;;;;;;;7.22;4.93;;;;;;;18.49;53.97;100543.41;5048420;28;20395;-67
2021/06/02 01:43:37;;;;;;;5.35;4.63;;;;;;;18.39;54.54;100550.34;5048311;28;20055;-69
2021/06/02 01:46:29;;;;;;;7.75;5.20;;;;;;;18.32;54.73;100540.28;5046775;28;20116;-69
2021/06/02 01:49:33;;;;;;;5.38;4.50;;;;;;;18.30;54.77;100542.16;5049717;28;20503;-69
2021/06/02 01:52:33;;;;;;;5.45;4.88;;;;;;;18.31;54.76;100543.00;5049037;28;20588;-68
2021/06/02 01:55:38;;;;;;;9.20;5.22;;;;;;;18.25;54.79;100546.97;5047998;28;20051;-69
2021/06/02 01:58:45;;;;;;;5.90;5.28;;;;;;;18.39;54.12;100543.28;5048221;28;20558;-69
2021/06/02 02:01:31;;;;;;;6.22;5.03;;;;;;;18.27;54.88;100550.34;5047834;28;20123;-69
2021/06/02 02:04:14;;;;;;;7.45;5.50;;;;;;;18.26;54.89;100553.09;5047638;28;20041;-68
2021/06/02 02:07:01;;;;;;;8.33;6.03;;;;;;;18.24;55.17;100553.22;5048682;28;20135;-69
2021/06/02 02:09:39;;;;;;;9.43;5.78;;;;;;;18.14;55.27;100554.88;5030396;28;20045;-68
2021/06/02 02:12:33;;;;;;;7.50;6.45;;;;;;;18.25;54.81;100554.88;5048043;28;20055;-68
2021/06/02 02:15:10;;;;;;;7.63;6.07;;;;;;;18.15;55.10;100550.44;5048829;28;20037;-67
2021/06/02 02:17:43;;;;;;;11.50;7.50;;;;;;;18.15;55.05;100559.19;5047873;28;20040;-68
2021/06/02 02:20:20;;;;;;;6.85;5.30;;;;;;;18.19;55.11;100544.81;5047498;28;20128;-69
2021/06/02 02:23:20;;;;;;;7.28;6.22;;;;;;;18.08;55.36;100547.44;5046570;28;20041;-69
2021/06/02 02:25:53;;;;;;;9.35;6.00;;;;;;;18.09;55.24;100550.91;5047864;28;20498;-68
2021/06/02 02:28:23;;;;;;;9.13;6.18;;;;;;;17.98;55.98;100551.72;5047901;28;20037;-68
2021/06/02 02:31:24;;;;;;;11.63;6.15;;;;;;;17.98;55.65;100554.38;5046584;28;20559;-68
2021/06/02 02:34:22;;;;;;;7.32;6.28;;;;;;;17.93;56.03;100546.78;5047613;28;20053;-67
2021/06/02 02:36:58;;;;;;;7.03;6.32;;;;;;;17.86;56.20;100550.03;5047513;28;20063;-69
2021/06/02 02:39:34;;;;;;;8.90;6.68;;;;;;;17.92;55.86;100549.56;5047218;28;20041;-68
2021/06/02 02:42:25;;;;;;;9.82;6.82;;;;;;;17.97;55.81;100552.69;5047074;28;20036;-68
2021/06/02 02:45:14;;;;;;;8.35;7.13;;;;;;;17.89;55.81;100560.31;5048347;28;20383;-68
2021/06/02 02:47:59;;;;;;;11.05;6.85;;;;;;;17.79;56.27;100563.69;5049888;28;20041;-68
2021/06/02 02:50:58;;;;;;;9.82;7.22;;;;;;;17.87;55.94;100563.09;5051819;28;20077;-68
2021/06/02 02:53:37;;;;;;;8.80;6.88;;;;;;;17.83;55.97;100556.34;5048970;28;20077;-68
2021/06/02 02:56:11;;;;;;;9.10;6.70;;;;;;;17.77;56.17;100554.19;5035534;28;20045;-68
2021/06/02 02:58:46;;;;;;;;;;;;;;;17.80;56.24;100568.00;5053861;28;20045;-68
2021/06/02 03:01:27;;;;;;;11.25;6.45;;;;;;;17.75;56.20;100564.03;5053297;28;19970;-68
2021/06/02 03:04:06;;;;;;;10.05;7.80;;;;;;;17.61;56.37;100570.28;5053038;28;20048;-68
2021/06/02 03:06:38;;;;;;;10.25;8.05;;;;;;;17.67;56.21;100575.09;5053275;28;20044;-68
2021/06/02 03:09:26;;;;;;;10.13;7.18;;;;;;;17.67;56.10;100577.72;5053055;28;20372;-68
2021/06/02 03:12:01;;;;;;;13.70;7.25;;;;;;;17.70;56.42;100576.66;5053347;28;20407;-68
2021/06/02 03:14:37;;;;;;;11.82;7.78;;;;;;;17.68;56.20;100568.84;5035750;28;20047;-68
2021/06/02 03:17:26;;;;;;;9.80;8.13;;;;;;;17.65;56.75;100578.81;5052572;28;20450;-68
2021/06/02 03:20:07;;;;;;;7.20;6.55;;;;;;;17.62;56.50;100579.84;5053178;28;20041;-68
2021/06/02 03:23:01;;;;;;;8.13;5.53;;;;;;;17.58;56.65;100583.69;5050627;28;20115;-68
2021/06/02 03:25:38;;;;;;;7.65;5.63;;;;;;;17.54;56.98;100580.44;5048963;28;20053;-68
2021/06/02 03:28:31;;;;;;;8.65;5.85;;;;;;;17.51;57.41;100585.09;5052873;28;20041;-69
2021/06/02 03:31:19;;;;;;;6.80;4.60;;;;;;;17.50;57.04;100578.97;5051219;28;20045;-69
2021/06/02 03:34:05;;;;;;;11.88;6.68;;;;;;;17.52;57.40;100586.75;5044765;28;20733;-68
2021/06/02 03:36:44;;;;;;;6.85;6.15;;;;;;;17.49;57.21;100587.00;5045414;28;20052;-69
2021/06/02 03:39:28;;;;;;;11.60;7.90;;;;;;;17.09;58.16;100591.66;5044791;28;20102;-68
2021/06/02 03:42:08;;;;;;;11.18;8.00;;;;;;;16.63;59.77;100587.00;5046297;28;20136;-67
2021/06/02 03:44:49;;;;;;;12.68;8.60;;;;;;;16.86;58.99;100591.53;5024079;28;20103;-67
2021/06/02 03:47:41;;;;;;;11.60;8.90;;;;;;;17.10;58.20;100602.13;5046645;28;20076;-66
2021/06/02 03:50:29;;;;;;;9.18;8.23;;;;;;;17.18;58.16;100602.41;5045635;28;20098;-65
2021/06/02 03:53:15;;;;;;;9.38;8.50;;;;;;;17.13;58.74;100601.88;5047147;28;20071;-68
2021/06/02 03:56:14;;;;;;;11.95;9.07;;;;;;;17.19;58.34;100597.97;5045002;28;20045;-67
2021/06/02 03:59:05;;;;;;;11.93;9.30;;;;;;;17.16;58.43;100603.47;5004132;28;20463;-66
2021/06/02 04:01:47;;;;;;;16.77;9.55;;;;;;;17.25;58.34;100603.63;5036419;28;20041;-68
2021/06/02 04:05:08;;;;;;;10.68;7.82;;;;;;;17.20;58.34;100603.13;5045882;28;20095;-66
2021/06/02 04:07:52;;;;;;;14.30;8.52;;;;;;;17.37;57.84;100606.34;5003883;28;20092;-67
2021/06/02 04:10:39;;;;;;;7.93;7.22;;;;;;;17.31;57.75;100606.78;5042354;28;20061;-68
2021/06/02 04:13:12;;;;;;;8.73;7.82;;;;;;;17.38;57.50;100600.97;5036053;28;20385;-68
2021/06/02 04:15:46;;;;;;;8.73;7.82;;;;;;;17.37;57.70;100603.72;5045429;28;20488;-67
2021/06/02 04:18:18;;;;;;;10.57;7.80;;;;;;;17.45;57.43;100609.25;5027729;28;20079;-67
2021/06/02 04:20:45;;;;;;;10.20;6.70;;;;;;;17.51;57.20;100612.28;5033053;28;20672;-68
2021/06/02 04:23:14;;;;;;;7.80;6.78;;;;;;;17.52;57.24;100608.72;5051427;28;20086;-68
2021/06/02 04:25:44;;;;;;;7.43;6.60;;;;;;;17.54;57.31;100619.13;5052135;28;20045;-68
2021/06/02 04:28:13;;;;;;;9.63;6.22;;;;;;;17.58;57.32;100620.59;5051525;28;20129;-69
2021/06/02 04:30:49;;;;;;;7.55;6.32;;;;;;;17.64;56.97;100617.50;5051372;28;20049;-66
2021/06/02 04:33:17;;;;;;;6.95;6.13;;;;;;;17.71;57.07;100621.38;5052022;28;20400;-68
2021/06/02 04:35:50;;;;;;;7.30;6.18;;;;;;;17.75;56.99;100617.59;5051648;28;20533;-67
2021/06/02 04:38:21;;;;;;;6.00;5.40;;;;;;;17.88;56.42;100617.50;5050010;28;20048;-68
2021/06/02 04:40:48;;;;;;;6.85;6.15;;;;;;;17.93;56.59;100622.44;5049962;28;20540;-68
2021/06/02 04:43:15;;;;;;;9.00;6.15;;;;;;;17.94;56.69;100626.75;5049200;28;20047;-69
2021/06/02 04:45:55;;;;;;;8.07;6.30;;;;;;;18.02;56.63;100627.03;5049676;28;20048;-66
2021/06/02 04:48:23;;;;;;;8.68;6.10;;;;;;;18.06;56.44;100633.78;5045465;28;20060;-68
2021/06/02 04:50:58;;;;;;;6.93;6.25;;;;;;;18.09;55.89;100630.88;5049982;28;20112;-68
2021/06/02 04:53:57;;;;;;;10.20;6.13;;;;;;;18.20;55.89;100638.81;5046529;28;20049;-68
2021/06/02 04:57:00;;;;;;;6.82;5.90;;;;;;;18.50;55.95;100640.09;5051962;28;20052;-68
2021/06/02 05:00:04;;;;;;;7.93;5.32;;;;;;;18.66;55.86;100643.25;5051358;28;20048;-68
2021/06/02 05:02:49;;;;;;;6.80;5.22;;;;;;;18.89;55.14;100645.91;5052146;28;20376;-68
2021/06/02 05:05:44;;;;;;;5.50;4.80;;;;;;;19.29;53.80;100646.25;5051402;28;20095;-68
2021/06/02 05:08:32;;;;;;;8.98;5.22;;;;;;;19.50;52.65;100643.69;5048330;28;20049;-69
2021/06/02 05:11:36;;;;;;;7.53;6.32;;;;;;;19.78;51.65;100653.72;5050962;28;20079;-68
2021/06/02 05:14:39;;;;;;;6.47;5.82;;;;;;;20.04;51.13;100650.72;5051263;28;20450;-68
2021/06/02 05:17:30;;;;;;;6.57;5.78;;;;;;;20.33;50.33;100654.41;5051859;28;20049;-68
2021/06/02 05:23:27;;;;;;;8.88;6.93;;;;;;;20.89;49.02;100655.88;5044414;28;20191;-67
2021/06/02 05:26:16;;;;;;;10.85;7.10;;;;;;;20.69;49.32;100652.28;5054447;28;20045;-67
2021/06/02 05:28:56;;;;;;;8.50;7.70;;;;;;;21.02;48.92;100658.28;5054676;28;20037;-65
2021/06/02 05:31:25;;;;;;;13.50;7.50;;;;;;;21.29;48.05;100668.28;5054814;28;20049;-70
2021/06/02 05:34:29;;;;;;;11.35;8.27;;;;;;;20.97;48.73;100660.50;5054305;28;20128;-66
2021/06/02 05:37:15;;;;;;;8.68;7.82;;;;;;;21.50;47.47;100673.50;5052561;28;20570;-71
2021/06/02 05:40:07;;;;;;;8.80;7.90;;;;;;;21.60;46.79;100664.59;5054937;28;20462;-69
2021/06/02 05:42:52;;;;;;;9.00;8.10;;;;;;;21.99;46.08;100667.28;5051781;28;20045;-70
2021/06/02 05:45:38;;;;;;;9.63;8.23;;;;;;;21.80;46.83;100675.25;5054285;28;20580;-70
2021/06/02 05:48:43;;;;;;;14.93;9.98;;;;;;;21.88;46.65;100668.25;5051642;28;20124;-69
2021/06/02 05:51:30;;;;;;;12.87;9.73;;;;;;;22.54;45.56;100674.66;5052742;28;20119;-70
2021/06/02 05:54:19;;;;;;;10.30;9.30;;;;;;;22.59;44.78;100672.41;5032270;28;20051;-73
2021/06/02 05:57:09;;;;;;;11.13;8.63;;;;;;;22.35;45.75;100676.34;5054787;28;20064;-68
2021/06/02 05:59:38;;;;;;;9.82;8.88;;;;;;;22.49;46.16;100681.25;5052001;28;20124;-68
2021/06/02 06:02:40;;;;;;;9.23;8.35;;;;;;;23.14;44.24;100681.31;5053749;28;20136;-69
2021/06/02 06:05:28;;;;;;;9.27;8.38;;;;;;;23.47;43.78;100681.69;5054195;28;20091;-69
2021/06/02 06:08:19;;;;;;;10.25;8.80;;;;;;;23.73;43.32;100681.84;5054280;28;20132;-69
2021/06/02 06:10:53;;;;;;;13.38;9.10;;;;;;;23.76;43.15;100685.06;5035609;28;20488;-72
2021/06/02 06:13:32;;;;;;;10.77;9.53;;;;;;;24.18;41.99;100680.91;5050645;28;20114;-69
2021/06/02 06:16:17;;;;;;;14.07;9.02;;;;;;;24.88;41.39;100680.94;5053348;28;20053;-71
2021/06/02 06:19:05;;;;;;;11.50;9.15;;;;;;;25.10;40.78;100679.56;5052379;28;20076;-71
2021/06/02 06:22:00;;;;;;;10.73;8.48;;;;;;;25.36;40.12;100688.34;5053879;28;20041;-77
2021/06/02 06:24:49;;;;;;;10.25;8.38;;;;;;;25.79;39.70;100678.47;5052476;28;20048;-70
2021/06/02 06:27:35;;;;;;;9.80;8.40;;;;;;;26.08;38.78;100689.47;5040954;28;20041;-76
2021/06/02 06:30:15;;;;;;;9.90;8.35;;;;;;;25.82;38.78;100699.47;5053253;28;20064;-69
2021/06/02 06:32:44;;;;;;;9.07;8.13;;;;;;;25.96;38.93;100698.84;5052107;28;20511;-72
2021/06/02 06:35:15;;;;;;;11.65;8.57;;;;;;;26.46;38.36;100708.53;5053675;28;20147;-71
2021/06/02 06:37:50;;;;;;;9.55;8.65;;;;;;;26.42;37.57;100703.69;5053102;28;20115;-70
2021/06/02 06:40:29;;;;;;;9.93;8.93;;;;;;;25.99;38.57;100703.81;5053173;28;20448;-71
2021/06/02 06:42:58;;;;;;;10.70;9.70;;;;;;;25.37;39.58;100698.00;5052965;28;20053;-71
2021/06/02 06:45:30;;;;;;;12.65;9.57;;;;;;;26.10;38.45;100700.84;5050594;28;20040;-70
2021/06/02 06:48:00;;;;;;;10.70;8.18;;;;;;;26.89;37.72;100695.75;5052813;28;20127;-71
2021/06/02 06:50:28;;;;;;;11.95;9.30;;;;;;;26.84;37.64;100708.81;5033469;28;20043;-72
2021/06/02 06:53:01;;;;;;;12.30;9.43;;;;;;;27.33;36.08;100703.34;5052279;28;20080;-71
2021/06/02 06:55:28;;;;;;;9.95;8.73;;;;;;;27.14;36.58;100705.41;5050818;28;20124;-72
2021/06/02 06:57:56;;;;;;;10.38;8.10;;;;;;;27.68;35.39;100708.16;5052138;28;20060;-72
2021/06/02 07:00:24;;;;;;;11.25;10.15;;;;;;;27.92;34.48;100706.38;5052939;28;20551;-71
2021/06/02 07:02:52;;;;;;;8.48;7.80;;;;;;;28.07;34.46;100707.25;5052660;28;20037;-72
2021/06/02 07:05:22;;;;;;;11.05;8.35;;;;;;;28.25;34.37;100711.47;5053439;28;20491;-70
2021/06/02 07:07:50;;;;;;;8.73;7.65;;;;;;;28.50;33.80;100712.94;5052158;28;20533;-68
2021/06/02 07:10:16;;;;;;;9.18;8.25;;;;;;;28.59;33.39;100711.84;5032734;28;20115;-68
2021/06/02 07:12:46;;;;;;;12.25;8.50;;;;;;;28.89;33.08;100710.03;5052959;28;20517;-68
2021/06/02 07:15:15;;;;;;;9.00;7.97;;;;;;;29.09;32.33;100713.03;5053350;28;20049;-67
2021/06/02 07:17:49;;;;;;;12.90;7.20;;;;;;;29.18;32.21;100716.41;5052808;28;20095;-71
2021/06/02 07:20:20;;;;;;;8.75;7.85;;;;;;;29.56;31.85;100714.44;5051168;28;20128;-68
2021/06/02 07:22:49;;;;;;;9.55;7.78;;;;;;;29.64;31.46;100722.38;5051126;28;20056;-68
2021/06/02 07:25:24;;;;;;;17.92;8.20;;;;;;;30.23;30.25;100721.34;5050636;28;20064;-71
2021/06/02 07:27:52;;;;;;;8.50;7.63;;;;;;;29.63;31.43;100717.22;5046781;28;20055;-71
2021/06/02 07:30:22;;;;;;;8.20;6.85;;;;;;;29.39;30.98;100716.47;5045738;28;20053;-70
2021/06/02 07:32:49;;;;;;;10.68;8.18;;;;;;;28.42;32.92;100721.88;5046291;28;20057;-75
2021/06/02 07:35:17;;;;;;;18.83;8.32;;;;;;;28.02;33.79;100717.69;5045322;28;20057;-77
2021/06/02 07:37:43;;;;;;;8.98;7.05;;;;;;;27.97;34.21;100719.22;5050077;28;20047;-76
2021/06/02 07:40:11;;;;;;;12.05;7.93;;;;;;;27.88;33.88;100713.91;5050871;28;20037;-76
2021/06/02 07:42:39;;;;;;;8.82;7.05;;;;;;;27.96;33.96;100722.91;5051136;28;20124;-78
2021/06/02 07:45:06;;;;;;;8.20;7.40;;;;;;;28.77;33.23;100719.56;5051472;28;20033;-77
2021/06/02 07:47:34;;;;;;;10.95;7.63;;;;;;;29.20;32.63;100719.75;5051700;28;20128;-78
2021/06/02 07:50:01;;;;;;;9.98;6.90;;;;;;;29.60;31.91;100718.41;5048199;28;20128;-76
2021/06/02 07:52:28;;;;;;;9.02;7.55;;;;;;;30.07;31.31;100717.03;5046359;28;20079;-78
2021/06/02 07:54:55;;;;;;;8.75;7.22;;;;;;;30.07;31.57;100724.28;5043806;28;20120;-79
2021/06/02 07:57:22;;;;;;;9.65;8.13;;;;;;;29.72;31.96;100721.44;5048430;28;20128;-78
2021/06/02 07:59:49;;;;;;;8.60;7.60;;;;;;;29.87;31.66;100716.00;5045605;28;20140;-78
2021/06/02 08:02:16;;;;;;;9.07;7.65;;;;;;;30.22;31.81;100720.53;5045147;28;20048;-77
2021/06/02 08:04:43;;;;;;;13.10;9.18;;;;;;;30.55;31.55;100730.72;5044836;28;20035;-76
2021/06/02 08:07:10;;;;;;;8.98;8.15;;;;;;;29.88;33.03;100723.91;5027375;28;20076;-77
2021/06/02 08:09:37;;;;;;;9.20;8.25;;;;;;;29.63;33.72;100720.72;5042825;28;20127;-78
2021/06/02 08:12:06;;;;;;;10.80;9.25;;;;;;;29.39;33.89;100712.97;5045612;28;20060;-78
2021/06/02 08:14:34;;;;;;;10.68;8.48;;;;;;;30.35;32.60;100716.28;5045139;28;20036;-78
2021/06/02 08:17:01;;;;;;;8.77;7.60;;;;;;;29.91;33.49;100714.63;5045049;28;20079;-79
2021/06/02 08:19:28;;;;;;;8.55;7.63;;;;;;;30.33;32.83;100707.59;5046045;28;20120;-79
2021/06/02 08:21:55;;;;;;;10.23;8.45;;;;;;;30.06;32.67;100719.94;5046162;28;20080;-77
2021/06/02 08:24:22;;;;;;;8.15;7.45;;;;;;;30.17;32.27;100714.91;5045649;28;20065;-77
2021/06/02 08:26:49;;;;;;;7.70;7.03;;;;;;;30.61;31.83;100719.16;5026133;28;20262;-76
2021/06/02 08:29:16;;;;;;;9.60;7.65;;;;;;;30.29;31.16;100725.13;5044129;28;20041;-77
2021/06/02 08:31:43;;;;;;;8.55;7.57;;;;;;;30.76;30.09;100727.16;5045529;28;20041;-76
2021/06/02 08:34:11;;;;;;;7.22;6.45;;;;;;;30.45;29.43;100724.84;5044929;28;20554;-74
2021/06/02 08:36:38;;;;;;;7.78;7.10;;;;;;;29.70;30.23;100732.38;5043579;28;20131;-74
2021/06/02 08:39:07;;;;;;;9.57;7.22;;;;;;;30.02;30.13;100731.06;5045338;28;20070;-74
2021/06/02 08:41:38;;;;;;;8.98;7.95;;;;;;;30.22;29.77;100728.59;5043445;28;20085;-74
2021/06/02 08:44:07;;;;;;;9.25;7.53;;;;;;;29.89;30.59;100730.09;5044364;28;20037;-77
2021/06/02 08:46:36;;;;;;;7.65;6.95;;;;;;;30.32;30.63;100730.13;5047836;28;20120;-76
2021/06/02 08:49:10;;;;;;;9.20;6.97;;;;;;;29.78;30.63;100727.94;5045615;28;20048;-76
2021/06/02 08:51:37;;;;;;;9.95;8.55;;;;;;;29.09;32.54;100737.19;5045505;28;20037;-75
2021/06/02 08:54:04;;;;;;;10.02;8.32;;;;;;;29.27;32.93;100733.28;5049345;28;20149;-75
2021/06/02 08:56:33;;;;;;;10.00;8.55;;;;;;;29.45;32.55;100733.69;5048490;28;20116;-75
2021/06/02 08:59:02;;;;;;;8.43;7.63;;;;;;;29.17;33.55;100731.69;5049627;28;20357;-77
2021/06/02 09:01:29;;;;;;;12.45;7.00;;;;;;;29.02;32.37;100738.09;5055059;28;20045;-74
2021/06/02 09:03:58;;;;;;;6.25;5.63;;;;;;;28.92;31.94;100736.50;5050218;28;20563;-75
2021/06/02 09:06:27;;;;;;;10.10;9.07;;;;;;;28.37;33.95;100742.22;5037085;28;20065;-75
2021/06/02 09:08:54;;;;;;;9.63;6.35;;;;;;;28.83;33.36;100750.19;5052226;28;20132;-78
2021/06/02 09:11:22;;;;;;;11.32;6.88;;;;;;;29.07;33.39;100741.06;5050598;28;20041;-77
2021/06/02 09:13:49;;;;;;;7.25;6.50;;;;;;;29.13;32.87;100746.50;5053412;28;20048;-77
2021/06/02 09:16:32;;;;;;;10.45;6.93;;;;;;;29.27;32.77;100750.22;5054259;28;20553;-77
2021/06/02 09:19:03;;;;;;;8.48;7.60;;;;;;;29.01;32.41;100742.63;5052387;28;20123;-75
2021/06/02 09:21:31;;;;;;;9.93;7.85;;;;;;;28.86;32.66;100744.44;5053668;28;20063;-75
2021/06/02 09:23:58;;;;;;;9.40;6.50;;;;;;;28.88;33.70;100745.09;5053590;28;20032;-75
2021/06/02 09:26:33;;;;;;;11.90;8.10;;;;;;;28.91;33.62;100748.22;5053701;28;20032;-76
2021/06/02 09:29:10;;;;;;;9.30;8.38;;;;;;;28.69;33.68;100749.13;5048485;28;20040;-75
2021/06/02 09:31:40;;;;;;;7.22;6.55;;;;;;;28.85;33.84;100751.66;5053212;28;20083;-74
2021/06/02 09:34:25;;;;;;;8.40;7.57;;;;;;;28.76;34.14;100743.84;5053703;28;20045;-79
2021/06/02 09:37:02;;;;;;;8.23;6.57;;;;;;;28.99;33.72;100747.34;5051403;28;20049;-75
2021/06/02 09:39:29;;;;;;;7.30;6.53;;;;;;;29.15;33.55;100744.47;5053159;28;20071;-75
2021/06/02 09:41:58;;;;;;;12.07;9.63;;;;;;;28.74;33.88;100748.59;5052881;28;20124;-76
2021/06/02 09:44:28;;;;;;;13.65;8.45;;;;;;;28.12;35.66;100746.91;5053510;28;20492;-76
2021/06/02 09:47:04;;;;;;;13.57;8.43;;;;;;;27.87;35.68;100743.56;5050914;28;20122;-76
2021/06/02 09:49:51;;;;;;;9.38;8.07;;;;;;;28.13;35.79;100748.59;5053333;28;20041;-77
2021/06/02 09:52:36;;;;;;;14.95;9.82;;;;;;;28.05;36.56;100746.78;5052448;28;20464;-76
2021/06/02 09:55:33;;;;;;;10.75;7.75;;;;;;;28.44;36.25;100740.47;5046676;28;20469;-74
2021/06/02 09:58:09;;;;;;;9.45;7.82;;;;;;;28.64;35.94;100741.63;5041846;28;20065;-76
2021/06/02 10:00:41;;;;;;;12.85;8.10;;;;;;;27.99;36.91;100744.00;5049487;28;20067;-76
2021/06/02 10:03:32;;;;;;;14.70;7.38;;;;;;;28.28;36.82;100743.25;5046625;28;20413;-75
2021/06/02 10:05:59;;;;;;;7.25;6.55;;;;;;;28.39;36.03;100753.59;5047411;28;20124;-75
2021/06/02 10:08:33;;;;;;;9.88;6.95;;;;;;;28.03;36.39;100738.09;5046607;28;20039;-75
2021/06/02 10:11:19;;;;;;;8.15;7.35;;;;;;;27.85;36.11;100746.41;5028986;28;20049;-78
2021/06/02 10:13:51;;;;;;;13.32;7.13;;;;;;;27.99;36.26;100746.66;5047109;28;20124;-75
2021/06/02 10:16:39;;;;;;;10.88;8.48;;;;;;;28.16;36.01;100749.03;5047072;28;20053;-76
2021/06/02 10:19:06;;;;;;;13.30;9.05;;;;;;;28.19;36.01;100751.38;5046601;28;20037;-74
2021/06/02 10:21:52;;;;;;;12.18;9.13;;;;;;;28.12;35.41;100750.41;5047669;28;20041;-84
2021/06/02 10:24:19;;;;;;;11.23;8.00;;;;;;;28.08;35.61;100754.47;5047135;28;20041;-72
2021/06/02 10:26:47;;;;;;;8.77;7.10;;;;;;;27.98;34.81;100750.38;5046822;28;20061;-74
2021/06/02 10:29:14;;;;;;;7.00;5.45;;;;;;;27.85;35.21;100753.59;5028860;28;20035;-73
2021/06/02 10:31:41;;;;;;;7.45;5.22;;;;;;;27.78;34.81;100752.66;5047905;28;20043;-73
2021/06/02 10:34:08;;;;;;;6.60;4.55;;;;;;;27.79;34.39;100751.63;5047565;28;20069;-73
2021/06/02 10:36:36;;;;;;;5.65;4.10;;;;;;;27.83;33.83;100755.66;5047126;28;20133;-73
2021/06/02 10:39:07;;;;;;;6.50;4.28;;;;;;;27.53;34.50;100751.91;5048761;28;20076;-73
2021/06/02 10:41:40;;;;;;;6.50;4.70;;;;;;;27.42;34.15;100756.63;5047717;28;20098;-73
2021/06/02 10:44:14;;;;;;;7.65;3.88;;;;;;;27.22;34.23;100762.56;5047786;28;20037;-73
2021/06/02 10:46:46;;;;;;;;;;;;;;;27.30;33.67;100758.03;5047119;28;20037;-73
2021/06/02 10:49:26;;;;;;;3.92;3.35;;;;;;;27.24;32.98;100763.25;5047484;28;19920;-73
2021/06/02 10:51:55;;;;;;;7.45;4.32;;;;;;;27.37;33.41;100752.81;5047102;28;20819;-73
2021/06/02 10:54:34;;;;;;;5.72;3.70;;;;;;;27.62;33.50;100745.50;5048379;28;20155;-72
2021/06/02 10:57:02;;;;;;;10.93;3.83;;;;;;;27.80;33.77;100753.31;5046535;28;20033;-72
2021/06/02 10:59:43;;;;;;;8.23;3.83;;;;;;;27.87;33.54;100749.75;5047433;28;20455;-73
2021/06/02 11:02:14;;;;;;;7.03;4.97;;;;;;;27.77;33.96;100748.31;5047119;28;20037;-73
2021/06/02 11:05:04;;;;;;;6.60;5.20;;;;;;;27.91;35.09;100751.06;5046739;28;20075;-76
2021/06/02 11:07:33;;;;;;;7.97;3.95;;;;;;;27.60;33.97;100750.22;5047273;28;20452;-73
2021/06/02 11:10:04;;;;;;;7.22;3.92;;;;;;;27.76;34.33;100750.16;5046511;28;20102;-74
2021/06/02 11:12:49;;;;;;;8.20;4.00;;;;;;;27.75;33.94;100747.63;5047575;28;20132;-74
2021/06/02 11:15:33;;;;;;;3.95;3.55;;;;;;;27.81;33.35;100753.16;5045931;28;20129;-74
2021/06/02 11:18:09;;;;;;;5.75;3.53;;;;;;;27.81;32.75;100755.81;5047233;28;20036;-74
2021/06/02 11:20:40;;;;;;;3.65;3.35;;;;;;;27.64;33.04;100748.84;5047095;28;20569;-74
2021/06/02 11:23:12;;;;;;;4.38;3.38;;;;;;;27.31;32.96;100756.19;5047514;28;21028;-73
2021/06/02 11:25:40;;;;;;;13.13;4.22;;;;;;;27.25;35.32;100759.56;5046221;28;20061;-74
2021/06/02 11:28:28;;;;;;;8.07;4.32;;;;;;;27.34;35.06;100754.00;5046660;28;20098;-74
2021/06/02 11:31:26;;;;;;;7.45;3.67;;;;;;;27.32;34.20;100755.19;5045785;28;21146;-74
2021/06/02 11:34:26;;;;;;;12.82;5.28;;;;;;;27.45;33.34;100739.41;5045135;28;20041;-74
2021/06/02 11:37:11;;;;;;;5.63;4.05;;;;;;;27.56;33.54;100741.69;5026443;28;20045;-74
2021/06/02 11:39:39;;;;;;;5.80;3.45;;;;;;;27.33;34.16;100746.16;5026614;28;21038;-73
2021/06/02 11:42:09;;;;;;;8.10;3.90;;;;;;;27.12;34.77;100749.41;5026424;28;20049;-73
2021/06/02 11:44:38;;;;;;;6.13;4.28;;;;;;;27.01;35.01;100750.59;5026911;28;20038;-73
2021/06/02 11:47:09;;;;;;;39.10;36.15;;;;;;;27.09;34.16;100752.41;5026721;28;20386;-73
2021/06/02 11:49:36;;;;;;;52.83;48.20;;;;;;;26.97;34.79;100746.56;5025948;28;20057;-72
2021/06/02 11:52:14;;;;;;;15.63;13.20;;;;;;;27.12;34.75;100739.53;5026088;28;20283;-72
2021/06/02 11:54:59;;;;;;;253.27;219.25;;;;;;;27.15;34.77;100738.34;5027791;28;20043;-73
2021/06/02 11:57:30;;;;;;;22.67;19.83;;;;;;;27.24;34.69;100731.97;5025323;28;20045;-72
2021/06/02 11:59:59;;;;;;;23.13;14.05;;;;;;;27.33;34.54;100733.63;5030363;28;20061;-73
2021/06/02 12:02:27;;;;;;;6.35;5.78;;;;;;;27.20;34.09;100743.19;5029601;28;20033;-73
2021/06/02 12:05:25;;;;;;;12.52;11.13;;;;;;;27.01;32.79;100742.56;5027134;28;20091;-73
2021/06/02 12:07:55;;;;;;;15.30;13.77;;;;;;;27.20;33.29;100740.50;5025550;28;20088;-73
2021/06/02 12:10:24;;;;;;;5.47;4.88;;;;;;;27.18;33.01;100731.84;5026219;28;20045;-73